KBLM/BLM METAR and TAF weather

Enter ICAO airport designator
Station Type Date Time Source
KBLM METAR 2022/12/04 05:56 UTC NOAA

KBLM 040556Z AUTO 28012KT 10SM CLR 05/M01 A3016 RMK AO2 SLP214 P0001 60001 T00501006 10133 20050 50009


Station Type Date Time Source
KBLM Decoded METAR 2022/12/04 05:56 UTC NOAA

Belmar-Farmingdale, NJ, United States (KBLM) 40-11N 074-08W
Dec 04, 2022 - 12:56 AM EST / 2022.12.04 0556 UTC
Wind: from the W (280 degrees) at 14 MPH (12 KT):0
Visibility: 10 mile(s):0
Sky conditions: clear
Precipitation last hour: 0.01 inches
Temperature: 41.0 F (5.0 C)
Dew Point: 30.9 F (-0.6 C)
Relative Humidity: 67%
Pressure (altimeter): 30.16 in. Hg (1021 hPa)
Pressure tendency: 0.03 inches (0.9 hPa) higher than three hours ago
ob: KBLM 040556Z AUTO 28012KT 10SM CLR 05/M01 A3016 RMK AO2 SLP214 P0001 60001 T00501006 10133 20050 50009
cycle: 6

Station Type Date Time Source
KBLM TAF UTC NOAA

Error!

Example: see airport list